createdAt,value
2022-10-19T00:00:08.266Z,8.23
2022-10-19T00:02:49.351Z,8.37
2022-10-19T00:05:37.233Z,7.90
2022-10-19T00:08:08.303Z,7.97
2022-10-19T00:11:00.896Z,7.47
2022-10-19T00:17:30.888Z,7.43
2022-10-19T00:19:59.623Z,7.30
2022-10-19T00:22:28.381Z,7.33
2022-10-19T00:25:25.613Z,7.70
2022-10-19T00:27:55.654Z,7.07
2022-10-19T00:30:28.275Z,7.30
2022-10-19T00:33:06.890Z,6.97
2022-10-19T00:35:50.714Z,7.87
2022-10-19T00:38:21.018Z,7.63
2022-10-19T00:41:26.881Z,7.47
2022-10-19T00:44:03.018Z,7.40
2022-10-19T00:46:39.203Z,7.33
2022-10-19T00:49:11.649Z,7.23
2022-10-19T00:52:08.788Z,7.77
2022-10-19T00:54:46.487Z,6.80
2022-10-19T00:57:22.476Z,7.30
2022-10-19T01:00:06.837Z,7.80
2022-10-19T01:02:38.609Z,7.47
2022-10-19T01:05:08.729Z,7.50
2022-10-19T01:07:37.365Z,7.70
2022-10-19T01:10:06.948Z,7.33
2022-10-19T01:13:01.596Z,7.27
2022-10-19T01:15:35.965Z,7.77
2022-10-19T01:18:13.429Z,7.53
2022-10-19T01:21:18.185Z,8.23
2022-10-19T01:24:32.655Z,7.37
2022-10-19T01:27:45.079Z,7.03
2022-10-19T01:30:18.486Z,7.00
2022-10-19T01:33:00.293Z,7.90
2022-10-19T01:35:35.225Z,6.90
2022-10-19T01:38:17.430Z,6.63
2022-10-19T01:40:55.878Z,6.30
2022-10-19T01:43:32.954Z,6.60
2022-10-19T01:46:08.163Z,6.43
2022-10-19T01:48:38.935Z,7.00
2022-10-19T01:51:11.554Z,7.20
2022-10-19T01:53:43.639Z,6.20
2022-10-19T01:56:14.020Z,7.03
2022-10-19T01:58:45.221Z,7.70
2022-10-19T02:01:19.947Z,6.93
2022-10-19T02:03:49.359Z,6.37
2022-10-19T02:06:19.303Z,6.87
2022-10-19T02:08:50.426Z,7.30
2022-10-19T02:11:20.625Z,6.87
2022-10-19T02:13:53.708Z,6.47
2022-10-19T02:16:27.912Z,6.40
2022-10-19T02:18:57.397Z,6.47
2022-10-19T02:21:27.200Z,5.93
2022-10-19T02:23:55.598Z,6.10
2022-10-19T02:26:24.311Z,5.83
2022-10-19T02:28:55.790Z,6.17
2022-10-19T02:31:27.214Z,5.77
2022-10-19T02:33:55.897Z,5.67
2022-10-19T02:36:24.606Z,5.93
2022-10-19T02:38:53.182Z,5.97
2022-10-19T02:41:28.232Z,5.47
2022-10-19T02:44:02.490Z,6.30
2022-10-19T02:46:41.903Z,5.50
2022-10-19T02:49:13.011Z,5.03
2022-10-19T02:51:56.909Z,5.50
2022-10-19T02:54:26.072Z,5.47
2022-10-19T02:56:54.745Z,5.57
2022-10-19T02:59:23.412Z,5.10
2022-10-19T03:01:53.953Z,4.50
2022-10-19T03:04:22.685Z,4.90
2022-10-19T03:06:51.880Z,4.70
2022-10-19T03:09:20.328Z,4.90
2022-10-19T03:11:49.174Z,5.30
2022-10-19T03:14:17.439Z,5.13
2022-10-19T03:16:46.074Z,4.83
2022-10-19T03:19:16.080Z,5.37
2022-10-19T03:21:44.534Z,5.20
2022-10-19T03:24:13.067Z,4.80
2022-10-19T03:26:41.555Z,4.90
2022-10-19T03:29:09.990Z,4.90
2022-10-19T03:31:38.717Z,5.50
2022-10-19T03:34:07.718Z,5.07
2022-10-19T03:36:39.682Z,4.53
2022-10-19T03:39:11.310Z,5.07
2022-10-19T03:41:40.847Z,5.13
2022-10-19T03:44:10.427Z,5.33
2022-10-19T03:46:39.489Z,5.13
2022-10-19T03:49:08.378Z,5.27
2022-10-19T03:51:38.691Z,5.40
2022-10-19T03:54:10.288Z,6.17
2022-10-19T03:56:38.809Z,6.50
2022-10-19T03:59:08.067Z,7.00
2022-10-19T04:01:38.972Z,7.67
2022-10-19T04:04:10.953Z,8.23
2022-10-19T04:06:42.441Z,6.57
2022-10-19T04:09:13.562Z,6.47
2022-10-19T04:11:42.363Z,6.53
2022-10-19T04:14:18.930Z,5.80
2022-10-19T04:16:55.416Z,6.80
2022-10-19T04:19:24.160Z,6.80
2022-10-19T04:21:53.780Z,6.00
2022-10-19T04:24:22.550Z,6.10
2022-10-19T04:26:53.170Z,5.77
2022-10-19T04:29:26.344Z,6.50
2022-10-19T04:31:58.475Z,5.70
2022-10-19T04:34:26.764Z,5.70
2022-10-19T04:36:59.479Z,6.03
2022-10-19T04:39:28.208Z,6.27
2022-10-19T04:41:56.855Z,6.10
2022-10-19T04:44:25.294Z,5.90
2022-10-19T04:46:55.154Z,6.40
2022-10-19T04:49:23.754Z,7.20
2022-10-19T04:51:52.269Z,7.40
2022-10-19T04:54:23.126Z,7.00
2022-10-19T04:56:53.908Z,7.30
2022-10-19T04:59:22.370Z,6.80
2022-10-19T05:01:50.903Z,6.67
2022-10-19T05:04:19.621Z,6.80
2022-10-19T05:06:48.696Z,6.53
2022-10-19T05:09:17.433Z,6.47
2022-10-19T05:11:50.284Z,6.40
2022-10-19T05:14:19.198Z,6.23
2022-10-19T05:16:47.696Z,6.70
2022-10-19T05:19:16.283Z,6.80
2022-10-19T05:21:44.616Z,6.70
2022-10-19T05:24:14.149Z,6.20
2022-10-19T05:26:42.647Z,5.90
2022-10-19T05:29:14.220Z,6.57
2022-10-19T05:31:43.167Z,6.17
2022-10-19T05:34:11.871Z,6.00
2022-10-19T05:36:41.184Z,6.40
2022-10-19T05:39:13.900Z,6.20
2022-10-19T05:41:44.321Z,6.77
2022-10-19T05:44:16.776Z,6.20
2022-10-19T05:46:45.297Z,6.20
2022-10-19T05:49:14.731Z,6.37
2022-10-19T05:51:43.595Z,6.47
2022-10-19T05:54:12.251Z,7.20
2022-10-19T05:56:42.167Z,6.03
2022-10-19T05:59:17.146Z,7.30
2022-10-19T06:01:46.223Z,6.77
2022-10-19T06:04:18.527Z,7.37
2022-10-19T06:06:47.352Z,7.03
2022-10-19T06:09:15.771Z,7.13
2022-10-19T06:11:45.055Z,6.83
2022-10-19T06:14:17.206Z,7.23
2022-10-19T06:16:46.945Z,6.67
2022-10-19T06:19:16.222Z,7.13
2022-10-19T06:21:46.593Z,7.13
2022-10-19T06:24:15.033Z,6.50
2022-10-19T06:26:43.787Z,6.80
2022-10-19T06:29:12.115Z,7.33
2022-10-19T06:31:41.875Z,6.70
2022-10-19T06:34:10.496Z,6.20
2022-10-19T06:36:39.106Z,6.53
2022-10-19T06:39:07.469Z,6.40
2022-10-19T06:41:36.870Z,6.47
2022-10-19T06:44:05.246Z,5.90
2022-10-19T06:46:34.270Z,6.50
2022-10-19T06:49:03.945Z,6.00
2022-10-19T06:51:34.368Z,6.20
2022-10-19T06:54:02.800Z,5.83
2022-10-19T06:56:31.671Z,6.10
2022-10-19T06:59:00.370Z,6.27
2022-10-19T07:01:28.912Z,5.67
2022-10-19T07:03:57.694Z,5.57
2022-10-19T07:06:28.675Z,5.63
2022-10-19T07:08:57.306Z,6.13
2022-10-19T07:11:26.188Z,5.77
2022-10-19T07:13:54.819Z,5.87
2022-10-19T07:16:23.510Z,5.97
2022-10-19T07:18:53.546Z,5.40
2022-10-19T07:21:24.282Z,5.53
2022-10-19T07:23:54.344Z,5.37
2022-10-19T07:26:26.449Z,5.53
2022-10-19T07:28:58.165Z,5.47
2022-10-19T07:31:27.877Z,5.60
2022-10-19T07:33:57.572Z,4.97
2022-10-19T07:36:26.256Z,4.87
2022-10-19T07:38:57.969Z,5.17
2022-10-19T07:41:27.696Z,5.17
2022-10-19T07:43:57.733Z,5.00
2022-10-19T07:46:29.316Z,5.47
2022-10-19T07:48:58.613Z,5.40
2022-10-19T07:53:59.400Z,5.13
2022-10-19T07:56:29.170Z,5.03
2022-10-19T07:58:59.856Z,5.07
2022-10-19T08:01:30.463Z,5.07
2022-10-19T08:06:49.470Z,4.70
2022-10-19T08:09:47.139Z,5.30
2022-10-19T08:12:13.790Z,4.70
2022-10-19T08:14:43.564Z,4.47
2022-10-19T08:17:16.674Z,4.33
2022-10-19T08:19:45.591Z,5.13
2022-10-19T08:22:13.958Z,4.17
2022-10-19T08:24:43.624Z,4.20
2022-10-19T08:27:12.357Z,4.30
2022-10-19T08:29:40.606Z,4.00
2022-10-19T08:32:08.988Z,3.87
2022-10-19T08:34:37.539Z,3.10
2022-10-19T08:37:14.785Z,3.20
2022-10-19T08:39:56.009Z,3.43
2022-10-19T08:42:33.294Z,4.00
2022-10-19T08:45:34.489Z,3.33
2022-10-19T08:48:21.310Z,3.23
2022-10-19T08:50:50.709Z,3.50
2022-10-19T08:53:25.560Z,3.27
2022-10-19T08:56:06.667Z,3.50
2022-10-19T08:58:48.682Z,3.50
2022-10-19T09:01:31.608Z,3.43
2022-10-19T09:04:06.623Z,3.10
2022-10-19T09:06:41.833Z,3.20
2022-10-19T09:09:14.148Z,3.23
2022-10-19T09:11:48.407Z,3.60
2022-10-19T09:14:22.153Z,3.27
2022-10-19T09:16:50.936Z,3.70
2022-10-19T09:19:30.011Z,3.50
2022-10-19T09:22:05.608Z,3.10
2022-10-19T09:24:42.959Z,2.70
2022-10-19T09:27:21.343Z,2.33
2022-10-19T09:29:54.821Z,2.90
2022-10-19T09:32:27.726Z,2.07
2022-10-19T09:35:01.096Z,2.10
2022-10-19T09:37:33.977Z,1.90
2022-10-19T09:40:02.297Z,1.57
2022-10-19T09:42:34.712Z,2.13
2022-10-19T09:45:15.645Z,1.83
2022-10-19T09:47:49.577Z,1.40
2022-10-19T09:50:22.046Z,1.70
2022-10-19T09:52:51.800Z,1.40
2022-10-19T09:55:27.830Z,1.97
2022-10-19T09:58:04.153Z,1.50
2022-10-19T10:00:39.837Z,1.63
2022-10-19T10:03:08.952Z,1.30
2022-10-19T10:05:39.832Z,1.40
2022-10-19T10:08:15.939Z,1.40
2022-10-19T10:10:47.793Z,1.80
2022-10-19T10:13:22.020Z,1.43
2022-10-19T10:15:55.529Z,0.97
2022-10-19T10:18:25.797Z,0.97
2022-10-19T10:21:04.760Z,0.83
2022-10-19T10:23:36.727Z,0.90
2022-10-19T10:26:16.370Z,1.20
2022-10-19T10:28:51.319Z,1.10
2022-10-19T10:31:25.439Z,1.20
2022-10-19T10:34:02.819Z,1.40
2022-10-19T10:36:39.930Z,0.93
2022-10-19T10:39:09.455Z,1.10
2022-10-19T10:41:40.519Z,1.30
2022-10-19T10:44:20.423Z,1.37
2022-10-19T10:46:55.273Z,1.60
2022-10-19T10:49:26.862Z,1.60
2022-10-19T10:51:58.005Z,1.97
2022-10-19T10:54:30.381Z,1.70
2022-10-19T10:57:13.022Z,1.40
2022-10-19T10:59:51.087Z,1.90
2022-10-19T11:02:30.923Z,1.87
2022-10-19T11:05:03.997Z,1.67
2022-10-19T11:07:36.093Z,2.10
2022-10-19T11:10:14.422Z,2.03
2022-10-19T11:12:48.918Z,2.17
2022-10-19T11:15:24.406Z,2.00
2022-10-19T11:17:59.361Z,2.20
2022-10-19T11:20:31.931Z,1.90
2022-10-19T11:23:08.620Z,2.60
2022-10-19T11:25:49.394Z,2.73
2022-10-19T11:28:32.361Z,2.77
2022-10-19T11:31:11.282Z,2.63
2022-10-19T11:33:56.129Z,2.47
2022-10-19T11:36:40.587Z,2.57
2022-10-19T11:39:29.968Z,2.77
2022-10-19T11:42:06.781Z,3.10
2022-10-19T11:44:45.909Z,2.57
2022-10-19T11:47:29.948Z,2.73
2022-10-19T11:50:10.821Z,2.80
2022-10-19T11:52:46.467Z,2.87
2022-10-19T11:55:28.284Z,3.17
2022-10-19T11:58:05.542Z,2.83
2022-10-19T12:00:41.920Z,3.33
2022-10-19T12:03:50.379Z,3.03
2022-10-19T12:06:24.862Z,3.57
2022-10-19T12:09:09.984Z,3.33
2022-10-19T12:11:53.817Z,3.03
2022-10-19T12:14:26.859Z,3.40
2022-10-19T12:16:59.403Z,3.40
2022-10-19T12:19:34.868Z,3.30
2022-10-19T12:22:06.945Z,3.57
2022-10-19T12:24:36.574Z,3.60
2022-10-19T12:27:06.315Z,3.13
2022-10-19T12:29:38.050Z,3.60
2022-10-19T12:32:08.339Z,3.53
2022-10-19T12:34:48.134Z,3.87
2022-10-19T12:37:24.754Z,3.90
2022-10-19T12:39:59.085Z,3.90
2022-10-19T12:42:33.696Z,3.93
2022-10-19T12:45:19.215Z,4.07
2022-10-19T12:48:21.432Z,3.37
2022-10-19T12:51:04.400Z,3.80
2022-10-19T12:53:38.118Z,4.00
2022-10-19T12:56:09.456Z,16.83
2022-10-19T12:58:47.610Z,4.10
2022-10-19T13:01:22.738Z,4.70
2022-10-19T13:03:54.929Z,5.00
2022-10-19T13:06:36.784Z,5.40
2022-10-19T13:09:07.792Z,5.70
2022-10-19T13:11:38.555Z,4.70
2022-10-19T13:14:28.205Z,4.47
2022-10-19T13:17:01.822Z,4.30
2022-10-19T13:19:31.827Z,5.50
2022-10-19T13:22:24.680Z,3.90
2022-10-19T13:25:26.883Z,3.13
2022-10-19T13:28:01.761Z,4.10
2022-10-19T13:31:08.328Z,3.13
2022-10-19T13:33:52.527Z,2.87
2022-10-19T13:36:22.544Z,3.33
2022-10-19T13:39:08.689Z,2.73
2022-10-19T13:41:50.939Z,3.47
2022-10-19T13:44:26.403Z,3.63
2022-10-19T13:47:24.771Z,2.60
2022-10-19T13:50:14.761Z,2.70
2022-10-19T13:53:12.330Z,2.40
2022-10-19T13:56:09.800Z,2.90
2022-10-19T13:59:18.528Z,2.10
2022-10-19T14:02:02.197Z,2.20
2022-10-19T14:04:41.129Z,2.63
2022-10-19T14:07:15.128Z,2.40
2022-10-19T14:09:59.398Z,2.60
2022-10-19T14:12:30.083Z,1.90
2022-10-19T14:15:01.071Z,2.17
2022-10-19T14:17:36.168Z,2.13
2022-10-19T14:20:27.544Z,2.43
2022-10-19T14:22:56.029Z,2.00
2022-10-19T14:25:26.971Z,1.77
2022-10-19T14:28:02.350Z,1.50
2022-10-19T14:30:35.317Z,1.67
2022-10-19T14:33:09.934Z,1.70
2022-10-19T14:35:40.755Z,1.90
2022-10-19T14:38:10.248Z,1.50
2022-10-19T14:40:40.920Z,1.77
2022-10-19T14:43:22.299Z,1.40
2022-10-19T14:46:13.030Z,1.43
2022-10-19T14:48:45.464Z,1.50
2022-10-19T14:51:28.748Z,1.67
2022-10-19T14:54:00.863Z,1.67
2022-10-19T14:56:34.962Z,1.60
2022-10-19T14:59:07.929Z,1.50
2022-10-19T15:01:37.953Z,1.60
2022-10-19T15:04:06.381Z,2.23
2022-10-19T15:06:38.258Z,1.60
2022-10-19T15:09:15.395Z,1.77
2022-10-19T15:11:54.594Z,1.87
2022-10-19T15:14:31.961Z,1.73
2022-10-19T15:17:03.411Z,1.77
2022-10-19T15:19:33.869Z,1.70
2022-10-19T15:22:18.942Z,1.60
2022-10-19T15:25:03.497Z,1.87
2022-10-19T15:27:34.776Z,2.17
2022-10-19T15:30:06.830Z,2.00
2022-10-19T15:32:38.916Z,2.17
2022-10-19T15:35:12.928Z,2.00
2022-10-19T15:37:45.243Z,3.63
2022-10-19T15:40:19.852Z,2.60
2022-10-19T15:42:49.305Z,13.07
2022-10-19T15:45:36.148Z,8.30
2022-10-19T15:51:35.394Z,9.53
2022-10-19T15:54:06.879Z,8.47
2022-10-19T15:56:37.165Z,3.63
2022-10-19T15:59:09.491Z,4.10
2022-10-19T16:01:38.535Z,4.80
2022-10-19T16:04:08.383Z,4.13
2022-10-19T16:06:40.527Z,4.90
2022-10-19T16:09:09.723Z,4.20
2022-10-19T16:11:38.503Z,3.90
2022-10-19T16:14:07.306Z,3.80
2022-10-19T16:16:35.971Z,3.80
2022-10-19T16:19:04.695Z,3.90
2022-10-19T16:21:36.887Z,3.90
2022-10-19T16:24:05.680Z,4.30
2022-10-19T16:26:34.395Z,3.60
2022-10-19T16:29:03.248Z,3.60
2022-10-19T16:31:32.492Z,3.50
2022-10-19T16:34:01.085Z,3.80
2022-10-19T16:36:29.659Z,3.63
2022-10-19T16:39:01.337Z,3.50
2022-10-19T16:41:30.162Z,3.70
2022-10-19T16:43:58.902Z,4.03
2022-10-19T16:46:28.059Z,3.63
2022-10-19T16:48:56.971Z,3.90
2022-10-19T16:51:36.145Z,3.47
2022-10-19T16:54:07.943Z,4.43
2022-10-19T16:56:37.737Z,4.23
2022-10-19T16:59:07.655Z,3.60
2022-10-19T17:01:36.989Z,4.07
2022-10-19T17:04:06.200Z,3.57
2022-10-19T17:06:35.433Z,4.13
2022-10-19T17:11:55.885Z,4.10
2022-10-19T17:14:24.156Z,4.37
2022-10-19T17:16:52.676Z,4.80
2022-10-19T17:19:21.022Z,4.40
2022-10-19T17:21:49.727Z,3.87
2022-10-19T17:24:21.989Z,4.10
2022-10-19T17:26:52.161Z,3.20
2022-10-19T17:29:22.507Z,3.00
2022-10-19T17:31:51.673Z,3.20
2022-10-19T17:34:20.309Z,3.70
2022-10-19T17:36:49.390Z,3.70
2022-10-19T17:39:25.568Z,3.30
2022-10-19T17:42:02.222Z,3.40
2022-10-19T17:44:31.959Z,3.97
2022-10-19T17:47:01.578Z,4.77
2022-10-19T17:49:30.359Z,3.90
2022-10-19T17:51:59.576Z,3.90
2022-10-19T17:54:29.258Z,4.03
2022-10-19T17:56:58.299Z,3.87
2022-10-19T17:59:34.817Z,3.27
2022-10-19T18:02:07.472Z,3.40
2022-10-19T18:07:11.931Z,4.00
2022-10-19T18:09:42.322Z,4.93
2022-10-19T18:12:13.510Z,4.33
2022-10-19T18:14:41.894Z,4.50
2022-10-19T18:17:10.635Z,5.30
2022-10-19T18:19:41.384Z,4.43
2022-10-19T18:22:10.650Z,4.10
2022-10-19T18:24:41.084Z,3.60
2022-10-19T18:27:09.747Z,3.80
2022-10-19T18:29:38.359Z,3.23
2022-10-19T18:34:40.575Z,4.17
2022-10-19T18:37:09.127Z,3.87
2022-10-19T18:39:38.186Z,4.13
2022-10-19T18:42:08.170Z,4.17
2022-10-19T18:44:37.328Z,4.30
2022-10-19T18:47:06.286Z,5.47
2022-10-19T18:49:36.019Z,4.50
2022-10-19T18:52:04.472Z,5.43
2022-10-19T18:54:33.243Z,6.90
2022-10-19T18:57:01.548Z,7.63
2022-10-19T18:59:31.829Z,7.90
2022-10-19T19:02:00.173Z,8.07
2022-10-19T19:04:28.890Z,8.27
2022-10-19T19:06:57.747Z,8.00
2022-10-19T19:09:26.170Z,6.87
2022-10-19T19:11:57.881Z,6.33
2022-10-19T19:14:26.633Z,6.27
2022-10-19T19:16:57.335Z,5.60
2022-10-19T19:19:27.646Z,5.30
2022-10-19T19:21:56.248Z,5.97
2022-10-19T19:24:28.241Z,5.00
2022-10-19T19:26:57.929Z,5.27
2022-10-19T19:29:28.029Z,5.53
2022-10-19T19:31:58.434Z,4.97
2022-10-19T19:34:26.907Z,5.67
2022-10-19T19:36:55.543Z,5.40
2022-10-19T19:39:24.190Z,5.57
2022-10-19T19:41:53.184Z,5.70
2022-10-19T19:44:21.561Z,4.50
2022-10-19T19:46:50.409Z,4.97
2022-10-19T19:49:21.267Z,5.40
2022-10-19T19:51:50.735Z,5.43
2022-10-19T19:54:19.163Z,5.90
2022-10-19T19:56:48.243Z,4.80
2022-10-19T19:59:16.798Z,4.40
2022-10-19T20:01:46.053Z,4.30
2022-10-19T20:04:14.677Z,4.20
2022-10-19T20:06:44.766Z,3.97
2022-10-19T20:09:14.065Z,4.07
2022-10-19T20:11:43.136Z,4.10
2022-10-19T20:14:11.919Z,4.40
2022-10-19T20:16:40.748Z,4.90
2022-10-19T20:19:12.640Z,4.67
2022-10-19T20:21:42.517Z,5.83
2022-10-19T20:24:12.773Z,5.40
2022-10-19T20:26:41.190Z,5.63
2022-10-19T20:29:09.759Z,5.47
2022-10-19T20:31:40.541Z,5.80
2022-10-19T20:34:10.808Z,5.90
2022-10-19T20:36:39.957Z,5.73
2022-10-19T20:39:08.519Z,5.70
2022-10-19T20:41:38.428Z,5.97
2022-10-19T20:44:07.041Z,6.30
2022-10-19T20:46:37.190Z,5.90
2022-10-19T20:49:07.460Z,6.33
2022-10-19T20:51:38.010Z,6.10
2022-10-19T20:54:08.936Z,6.37
2022-10-19T20:56:41.370Z,6.70
2022-10-19T20:59:13.834Z,6.10
2022-10-19T21:01:44.404Z,6.60
2022-10-19T21:04:15.545Z,6.80
2022-10-19T21:06:46.588Z,7.50
2022-10-19T21:09:17.023Z,6.87
2022-10-19T21:11:48.272Z,8.07
2022-10-19T21:14:21.092Z,6.80
2022-10-19T21:16:52.442Z,6.60
2022-10-19T21:19:25.488Z,6.57
2022-10-19T21:21:57.263Z,6.40
2022-10-19T21:24:38.225Z,6.07
2022-10-19T21:27:09.717Z,6.93
2022-10-19T21:29:38.746Z,6.50
2022-10-19T21:32:07.143Z,6.63
2022-10-19T21:34:35.909Z,7.07
2022-10-19T21:37:04.434Z,7.50
2022-10-19T21:39:33.951Z,7.57
2022-10-19T21:42:02.593Z,7.37
2022-10-19T21:44:32.497Z,8.77
2022-10-19T21:47:00.865Z,8.57
2022-10-19T21:49:29.500Z,8.27
2022-10-19T21:51:58.228Z,7.23
2022-10-19T21:54:27.571Z,7.17
2022-10-19T21:56:57.790Z,5.73
2022-10-19T21:59:26.475Z,6.27
2022-10-19T22:01:57.218Z,5.10
2022-10-19T22:04:25.747Z,5.40
2022-10-19T22:06:54.479Z,5.23
2022-10-19T22:09:23.432Z,5.37
2022-10-19T22:11:52.117Z,5.70
2022-10-19T22:14:20.358Z,5.90
2022-10-19T22:16:48.887Z,5.40
2022-10-19T22:19:19.247Z,5.43
2022-10-19T22:21:47.951Z,6.30
2022-10-19T22:24:16.675Z,5.97
2022-10-19T22:26:47.136Z,6.83
2022-10-19T22:29:15.975Z,7.53
2022-10-19T22:31:44.888Z,8.87
2022-10-19T22:34:15.654Z,8.70
2022-10-19T22:36:46.172Z,9.43
2022-10-19T22:39:15.635Z,8.30
2022-10-19T22:41:44.082Z,8.37
2022-10-19T22:44:12.647Z,7.63
2022-10-19T22:46:41.084Z,7.83
2022-10-19T22:49:11.237Z,8.80
2022-10-19T22:51:39.662Z,8.07
2022-10-19T22:54:09.738Z,7.53
2022-10-19T22:56:38.247Z,8.07
2022-10-19T22:59:08.360Z,7.20
2022-10-19T23:01:37.673Z,7.60
2022-10-19T23:04:06.858Z,7.63
2022-10-19T23:06:35.384Z,7.00
2022-10-19T23:09:05.127Z,7.27
2022-10-19T23:11:36.175Z,7.63
2022-10-19T23:14:05.256Z,8.27
2022-10-19T23:16:33.602Z,8.27
2022-10-19T23:19:02.114Z,8.03
2022-10-19T23:21:30.563Z,7.47
2022-10-19T23:23:58.963Z,7.73
2022-10-19T23:26:27.581Z,8.23
2022-10-19T23:28:57.220Z,8.60
2022-10-19T23:31:30.251Z,8.13
2022-10-19T23:33:58.687Z,7.60
2022-10-19T23:36:28.734Z,7.60
2022-10-19T23:38:58.704Z,8.53
2022-10-19T23:41:27.270Z,8.97
2022-10-19T23:43:58.286Z,8.57
2022-10-19T23:46:26.902Z,8.30
2022-10-19T23:48:55.365Z,8.80
2022-10-19T23:51:24.616Z,9.23
2022-10-19T23:53:53.887Z,9.10
2022-10-19T23:56:25.058Z,8.97
2022-10-19T23:58:53.922Z,8.63
